sensor_id;sensor_type;location;lat;lon;timestamp;P1;durP1;ratioP1;P2;durP2;ratioP2
22935;SDS011;11633;42.716;23.312;2023-02-15T00:00:53;26.30;;;14.23;;
22935;SDS011;11633;42.716;23.312;2023-02-15T00:03:20;27.58;;;15.35;;
22935;SDS011;11633;42.716;23.312;2023-02-15T00:05:45;28.23;;;14.63;;
22935;SDS011;11633;42.716;23.312;2023-02-15T00:08:10;28.98;;;15.07;;
22935;SDS011;11633;42.716;23.312;2023-02-15T00:10:35;26.75;;;14.68;;
22935;SDS011;11633;42.716;23.312;2023-02-15T00:13:01;27.45;;;14.27;;
22935;SDS011;11633;42.716;23.312;2023-02-15T00:15:26;32.90;;;15.32;;
22935;SDS011;11633;42.716;23.312;2023-02-15T00:17:51;25.38;;;14.15;;
22935;SDS011;11633;42.716;23.312;2023-02-15T00:20:16;29.38;;;15.35;;
22935;SDS011;11633;42.716;23.312;2023-02-15T00:22:43;24.73;;;13.48;;
22935;SDS011;11633;42.716;23.312;2023-02-15T00:25:08;27.23;;;14.60;;
22935;SDS011;11633;42.716;23.312;2023-02-15T00:27:33;27.48;;;15.93;;
22935;SDS011;11633;42.716;23.312;2023-02-15T00:29:59;28.02;;;15.40;;
22935;SDS011;11633;42.716;23.312;2023-02-15T00:32:24;26.95;;;14.82;;
22935;SDS011;11633;42.716;23.312;2023-02-15T00:34:50;24.27;;;13.57;;
22935;SDS011;11633;42.716;23.312;2023-02-15T00:37:15;26.55;;;15.73;;
22935;SDS011;11633;42.716;23.312;2023-02-15T00:39:40;26.73;;;15.90;;
22935;SDS011;11633;42.716;23.312;2023-02-15T00:42:06;26.85;;;15.00;;
22935;SDS011;11633;42.716;23.312;2023-02-15T00:44:31;28.13;;;14.05;;
22935;SDS011;11633;42.716;23.312;2023-02-15T00:46:56;22.95;;;13.35;;
22935;SDS011;11633;42.716;23.312;2023-02-15T00:49:21;22.30;;;14.05;;
22935;SDS011;11633;42.716;23.312;2023-02-15T00:51:50;22.58;;;13.93;;
22935;SDS011;11633;42.716;23.312;2023-02-15T00:54:15;28.58;;;14.70;;
22935;SDS011;11633;42.716;23.312;2023-02-15T00:56:43;26.58;;;16.00;;
22935;SDS011;11633;42.716;23.312;2023-02-15T00:59:08;28.13;;;14.30;;
22935;SDS011;11633;42.716;23.312;2023-02-15T01:01:34;25.30;;;14.20;;
22935;SDS011;11633;42.716;23.312;2023-02-15T01:03:59;26.48;;;14.43;;
22935;SDS011;11633;42.716;23.312;2023-02-15T01:06:24;24.23;;;13.82;;
22935;SDS011;11633;42.716;23.312;2023-02-15T01:08:49;26.60;;;13.85;;
22935;SDS011;11633;42.716;23.312;2023-02-15T01:11:16;22.77;;;13.75;;
22935;SDS011;11633;42.716;23.312;2023-02-15T01:13:48;23.58;;;13.10;;
22935;SDS011;11633;42.716;23.312;2023-02-15T01:16:13;23.42;;;13.90;;
22935;SDS011;11633;42.716;23.312;2023-02-15T01:18:39;21.90;;;13.27;;
22935;SDS011;11633;42.716;23.312;2023-02-15T01:21:11;26.13;;;13.90;;
22935;SDS011;11633;42.716;23.312;2023-02-15T01:23:36;23.40;;;12.70;;
22935;SDS011;11633;42.716;23.312;2023-02-15T01:26:02;26.58;;;14.25;;
22935;SDS011;11633;42.716;23.312;2023-02-15T01:28:28;27.38;;;13.98;;
22935;SDS011;11633;42.716;23.312;2023-02-15T01:30:53;20.63;;;12.60;;
22935;SDS011;11633;42.716;23.312;2023-02-15T01:33:18;21.40;;;13.32;;
22935;SDS011;11633;42.716;23.312;2023-02-15T01:35:46;26.58;;;14.60;;
22935;SDS011;11633;42.716;23.312;2023-02-15T01:38:12;22.58;;;12.95;;
22935;SDS011;11633;42.716;23.312;2023-02-15T01:40:37;23.52;;;12.65;;
22935;SDS011;11633;42.716;23.312;2023-02-15T01:43:07;24.77;;;14.57;;
22935;SDS011;11633;42.716;23.312;2023-02-15T01:45:33;22.17;;;13.45;;
22935;SDS011;11633;42.716;23.312;2023-02-15T01:48:05;24.13;;;12.23;;
22935;SDS011;11633;42.716;23.312;2023-02-15T01:50:36;24.80;;;13.73;;
22935;SDS011;11633;42.716;23.312;2023-02-15T01:55:32;24.38;;;13.05;;
22935;SDS011;11633;42.716;23.312;2023-02-15T01:57:58;23.00;;;13.82;;
22935;SDS011;11633;42.716;23.312;2023-02-15T02:00:23;20.25;;;12.77;;
22935;SDS011;11633;42.716;23.312;2023-02-15T02:02:50;22.60;;;13.05;;
22935;SDS011;11633;42.716;23.312;2023-02-15T02:05:17;23.80;;;12.63;;
22935;SDS011;11633;42.716;23.312;2023-02-15T02:07:43;21.52;;;12.40;;
22935;SDS011;11633;42.716;23.312;2023-02-15T02:10:11;20.55;;;11.77;;
22935;SDS011;11633;42.716;23.312;2023-02-15T02:12:36;24.90;;;13.63;;
22935;SDS011;11633;42.716;23.312;2023-02-15T02:15:03;23.33;;;12.95;;
22935;SDS011;11633;42.716;23.312;2023-02-15T02:33:25;23.85;;;12.80;;
22935;SDS011;11633;42.716;23.312;2023-02-15T02:36:02;19.60;;;12.60;;
22935;SDS011;11633;42.716;23.312;2023-02-15T02:43:59;21.70;;;12.65;;
22935;SDS011;11633;42.716;23.312;2023-02-15T02:49:13;21.25;;;12.57;;
22935;SDS011;11633;42.716;23.312;2023-02-15T02:51:38;23.65;;;14.32;;
22935;SDS011;11633;42.716;23.312;2023-02-15T02:54:04;17.60;;;11.48;;
22935;SDS011;11633;42.716;23.312;2023-02-15T02:56:33;21.95;;;13.07;;
22935;SDS011;11633;42.716;23.312;2023-02-15T02:59:04;27.15;;;13.93;;
22935;SDS011;11633;42.716;23.312;2023-02-15T03:01:42;23.30;;;11.93;;
22935;SDS011;11633;42.716;23.312;2023-02-15T03:04:10;24.45;;;12.15;;
22935;SDS011;11633;42.716;23.312;2023-02-15T03:06:40;24.30;;;12.90;;
22935;SDS011;11633;42.716;23.312;2023-02-15T03:09:11;22.25;;;13.13;;
22935;SDS011;11633;42.716;23.312;2023-02-15T03:11:46;23.10;;;13.20;;
22935;SDS011;11633;42.716;23.312;2023-02-15T03:14:13;21.08;;;12.45;;
22935;SDS011;11633;42.716;23.312;2023-02-15T03:16:39;22.77;;;13.20;;
22935;SDS011;11633;42.716;23.312;2023-02-15T03:19:06;25.40;;;13.95;;
22935;SDS011;11633;42.716;23.312;2023-02-15T03:24:03;26.15;;;14.05;;
22935;SDS011;11633;42.716;23.312;2023-02-15T03:26:30;22.45;;;12.75;;
22935;SDS011;11633;42.716;23.312;2023-02-15T03:28:55;23.58;;;13.02;;
22935;SDS011;11633;42.716;23.312;2023-02-15T03:31:21;21.17;;;11.77;;
22935;SDS011;11633;42.716;23.312;2023-02-15T03:33:58;24.25;;;12.73;;
22935;SDS011;11633;42.716;23.312;2023-02-15T03:44:20;21.35;;;11.82;;
22935;SDS011;11633;42.716;23.312;2023-02-15T03:46:50;22.67;;;13.45;;
22935;SDS011;11633;42.716;23.312;2023-02-15T03:49:18;24.13;;;12.48;;
22935;SDS011;11633;42.716;23.312;2023-02-15T03:51:45;20.10;;;11.48;;
22935;SDS011;11633;42.716;23.312;2023-02-15T03:54:13;22.50;;;13.02;;
22935;SDS011;11633;42.716;23.312;2023-02-15T03:56:59;22.08;;;11.77;;
22935;SDS011;11633;42.716;23.312;2023-02-15T03:59:44;21.20;;;11.85;;
22935;SDS011;11633;42.716;23.312;2023-02-15T04:02:28;20.15;;;11.88;;
22935;SDS011;11633;42.716;23.312;2023-02-15T04:04:56;23.10;;;12.65;;
22935;SDS011;11633;42.716;23.312;2023-02-15T04:07:22;24.33;;;12.43;;
22935;SDS011;11633;42.716;23.312;2023-02-15T04:09:47;21.35;;;12.10;;
22935;SDS011;11633;42.716;23.312;2023-02-15T04:12:31;23.90;;;12.80;;
22935;SDS011;11633;42.716;23.312;2023-02-15T04:14:56;18.73;;;11.88;;
22935;SDS011;11633;42.716;23.312;2023-02-15T04:17:40;20.30;;;12.05;;
22935;SDS011;11633;42.716;23.312;2023-02-15T04:20:05;20.60;;;13.27;;
22935;SDS011;11633;42.716;23.312;2023-02-15T04:22:49;22.20;;;12.25;;
22935;SDS011;11633;42.716;23.312;2023-02-15T04:25:33;23.52;;;12.13;;
22935;SDS011;11633;42.716;23.312;2023-02-15T04:27:59;25.02;;;12.75;;
22935;SDS011;11633;42.716;23.312;2023-02-15T04:30:25;22.55;;;13.23;;
22935;SDS011;11633;42.716;23.312;2023-02-15T04:32:50;20.10;;;12.27;;
22935;SDS011;11633;42.716;23.312;2023-02-15T04:35:16;21.52;;;12.57;;
22935;SDS011;11633;42.716;23.312;2023-02-15T04:37:41;21.95;;;12.13;;
22935;SDS011;11633;42.716;23.312;2023-02-15T04:40:07;24.55;;;12.05;;
22935;SDS011;11633;42.716;23.312;2023-02-15T04:42:33;22.30;;;13.10;;
22935;SDS011;11633;42.716;23.312;2023-02-15T04:44:59;19.65;;;12.18;;
22935;SDS011;11633;42.716;23.312;2023-02-15T04:47:24;22.38;;;12.15;;
22935;SDS011;11633;42.716;23.312;2023-02-15T04:49:49;22.15;;;13.02;;
22935;SDS011;11633;42.716;23.312;2023-02-15T04:52:15;23.60;;;12.43;;
22935;SDS011;11633;42.716;23.312;2023-02-15T04:54:42;22.48;;;11.80;;
22935;SDS011;11633;42.716;23.312;2023-02-15T04:57:07;23.83;;;13.23;;
22935;SDS011;11633;42.716;23.312;2023-02-15T04:59:32;21.90;;;12.02;;
22935;SDS011;11633;42.716;23.312;2023-02-15T05:01:57;23.38;;;13.73;;
22935;SDS011;11633;42.716;23.312;2023-02-15T05:04:23;21.92;;;13.18;;
22935;SDS011;11633;42.716;23.312;2023-02-15T05:06:48;23.48;;;13.88;;
22935;SDS011;11633;42.716;23.312;2023-02-15T05:09:14;24.02;;;11.88;;
22935;SDS011;11633;42.716;23.312;2023-02-15T05:11:39;23.17;;;13.45;;
22935;SDS011;11633;42.716;23.312;2023-02-15T05:14:04;19.67;;;11.95;;
22935;SDS011;11633;42.716;23.312;2023-02-15T05:16:29;20.83;;;12.73;;
22935;SDS011;11633;42.716;23.312;2023-02-15T05:18:55;23.58;;;13.15;;
22935;SDS011;11633;42.716;23.312;2023-02-15T05:21:20;20.95;;;13.00;;
22935;SDS011;11633;42.716;23.312;2023-02-15T05:23:45;21.13;;;12.05;;
22935;SDS011;11633;42.716;23.312;2023-02-15T05:26:11;21.10;;;12.63;;
22935;SDS011;11633;42.716;23.312;2023-02-15T05:28:55;27.48;;;12.57;;
22935;SDS011;11633;42.716;23.312;2023-02-15T05:31:21;22.85;;;13.43;;
22935;SDS011;11633;42.716;23.312;2023-02-15T05:33:46;22.77;;;12.52;;
22935;SDS011;11633;42.716;23.312;2023-02-15T05:36:11;24.90;;;12.70;;
22935;SDS011;11633;42.716;23.312;2023-02-15T05:38:37;24.48;;;13.93;;
22935;SDS011;11633;42.716;23.312;2023-02-15T05:41:03;20.35;;;12.00;;
22935;SDS011;11633;42.716;23.312;2023-02-15T05:43:29;21.27;;;12.25;;
22935;SDS011;11633;42.716;23.312;2023-02-15T05:45:54;17.38;;;11.00;;
22935;SDS011;11633;42.716;23.312;2023-02-15T05:48:21;23.55;;;12.60;;
22935;SDS011;11633;42.716;23.312;2023-02-15T05:50:46;21.58;;;12.50;;
22935;SDS011;11633;42.716;23.312;2023-02-15T05:53:21;21.60;;;12.15;;
22935;SDS011;11633;42.716;23.312;2023-02-15T05:55:46;19.73;;;12.95;;
22935;SDS011;11633;42.716;23.312;2023-02-15T05:58:11;23.23;;;12.70;;
22935;SDS011;11633;42.716;23.312;2023-02-15T06:00:36;28.92;;;13.05;;
22935;SDS011;11633;42.716;23.312;2023-02-15T06:03:02;21.17;;;12.95;;
22935;SDS011;11633;42.716;23.312;2023-02-15T06:05:27;25.42;;;12.88;;
22935;SDS011;11633;42.716;23.312;2023-02-15T06:07:52;21.05;;;11.90;;
22935;SDS011;11633;42.716;23.312;2023-02-15T06:10:17;23.27;;;12.02;;
22935;SDS011;11633;42.716;23.312;2023-02-15T06:12:43;23.30;;;12.52;;
22935;SDS011;11633;42.716;23.312;2023-02-15T06:15:09;23.73;;;13.00;;
22935;SDS011;11633;42.716;23.312;2023-02-15T06:17:34;23.73;;;13.10;;
22935;SDS011;11633;42.716;23.312;2023-02-15T06:19:59;25.30;;;13.10;;
22935;SDS011;11633;42.716;23.312;2023-02-15T06:22:24;20.52;;;12.07;;
22935;SDS011;11633;42.716;23.312;2023-02-15T06:24:50;22.08;;;11.52;;
22935;SDS011;11633;42.716;23.312;2023-02-15T06:27:15;23.98;;;13.00;;
22935;SDS011;11633;42.716;23.312;2023-02-15T06:29:40;18.00;;;11.63;;
22935;SDS011;11633;42.716;23.312;2023-02-15T06:32:05;18.17;;;11.70;;
22935;SDS011;11633;42.716;23.312;2023-02-15T06:34:31;21.55;;;12.95;;
22935;SDS011;11633;42.716;23.312;2023-02-15T06:36:56;22.88;;;12.32;;
22935;SDS011;11633;42.716;23.312;2023-02-15T06:39:21;20.25;;;12.93;;
22935;SDS011;11633;42.716;23.312;2023-02-15T06:41:47;19.58;;;11.77;;
22935;SDS011;11633;42.716;23.312;2023-02-15T06:44:12;19.17;;;12.30;;
22935;SDS011;11633;42.716;23.312;2023-02-15T06:46:37;20.90;;;11.13;;
22935;SDS011;11633;42.716;23.312;2023-02-15T06:49:03;18.88;;;12.05;;
22935;SDS011;11633;42.716;23.312;2023-02-15T06:51:28;17.67;;;10.75;;
22935;SDS011;11633;42.716;23.312;2023-02-15T06:53:53;19.90;;;11.93;;
22935;SDS011;11633;42.716;23.312;2023-02-15T06:56:19;20.90;;;11.32;;
22935;SDS011;11633;42.716;23.312;2023-02-15T06:58:44;20.88;;;11.95;;
22935;SDS011;11633;42.716;23.312;2023-02-15T07:01:11;17.35;;;12.05;;
22935;SDS011;11633;42.716;23.312;2023-02-15T07:03:36;21.50;;;13.57;;
22935;SDS011;11633;42.716;23.312;2023-02-15T07:06:02;26.73;;;17.33;;
22935;SDS011;11633;42.716;23.312;2023-02-15T07:08:28;21.95;;;13.98;;
22935;SDS011;11633;42.716;23.312;2023-02-15T07:10:54;24.80;;;12.20;;
22935;SDS011;11633;42.716;23.312;2023-02-15T07:13:20;17.55;;;11.65;;
22935;SDS011;11633;42.716;23.312;2023-02-15T07:15:47;22.40;;;12.85;;
22935;SDS011;11633;42.716;23.312;2023-02-15T07:18:13;18.25;;;11.38;;
22935;SDS011;11633;42.716;23.312;2023-02-15T07:20:38;21.67;;;11.35;;
22935;SDS011;11633;42.716;23.312;2023-02-15T07:23:05;18.88;;;11.35;;
22935;SDS011;11633;42.716;23.312;2023-02-15T07:25:30;19.67;;;11.27;;
22935;SDS011;11633;42.716;23.312;2023-02-15T07:27:56;23.38;;;11.50;;
22935;SDS011;11633;42.716;23.312;2023-02-15T07:30:22;22.33;;;11.35;;
22935;SDS011;11633;42.716;23.312;2023-02-15T07:32:47;17.95;;;11.60;;
22935;SDS011;11633;42.716;23.312;2023-02-15T07:35:31;20.63;;;11.93;;
22935;SDS011;11633;42.716;23.312;2023-02-15T07:37:57;19.83;;;11.35;;
22935;SDS011;11633;42.716;23.312;2023-02-15T07:40:22;23.70;;;13.00;;
22935;SDS011;11633;42.716;23.312;2023-02-15T07:42:48;23.80;;;13.52;;
22935;SDS011;11633;42.716;23.312;2023-02-15T07:45:13;21.98;;;11.38;;
22935;SDS011;11633;42.716;23.312;2023-02-15T07:47:39;22.58;;;10.55;;
22935;SDS011;11633;42.716;23.312;2023-02-15T07:50:04;21.20;;;11.38;;
22935;SDS011;11633;42.716;23.312;2023-02-15T07:52:29;22.48;;;15.27;;
22935;SDS011;11633;42.716;23.312;2023-02-15T07:54:55;23.90;;;13.65;;
22935;SDS011;11633;42.716;23.312;2023-02-15T07:57:20;22.05;;;12.32;;
22935;SDS011;11633;42.716;23.312;2023-02-15T07:59:45;20.48;;;12.73;;
22935;SDS011;11633;42.716;23.312;2023-02-15T08:02:10;19.80;;;11.10;;
22935;SDS011;11633;42.716;23.312;2023-02-15T08:04:35;19.90;;;11.48;;
22935;SDS011;11633;42.716;23.312;2023-02-15T08:07:01;21.10;;;11.27;;
22935;SDS011;11633;42.716;23.312;2023-02-15T08:09:26;18.25;;;11.20;;
22935;SDS011;11633;42.716;23.312;2023-02-15T08:11:51;18.50;;;10.88;;
22935;SDS011;11633;42.716;23.312;2023-02-15T08:14:20;18.90;;;11.82;;
22935;SDS011;11633;42.716;23.312;2023-02-15T08:16:58;17.17;;;10.65;;
22935;SDS011;11633;42.716;23.312;2023-02-15T08:19:25;20.20;;;11.70;;
22935;SDS011;11633;42.716;23.312;2023-02-15T08:21:53;17.70;;;11.27;;
22935;SDS011;11633;42.716;23.312;2023-02-15T08:24:19;18.00;;;11.38;;
22935;SDS011;11633;42.716;23.312;2023-02-15T08:26:45;24.85;;;12.48;;
22935;SDS011;11633;42.716;23.312;2023-02-15T08:29:12;19.02;;;10.75;;
22935;SDS011;11633;42.716;23.312;2023-02-15T08:31:37;15.40;;;10.00;;
22935;SDS011;11633;42.716;23.312;2023-02-15T08:34:03;17.33;;;10.25;;
22935;SDS011;11633;42.716;23.312;2023-02-15T08:36:29;17.83;;;9.75;;
22935;SDS011;11633;42.716;23.312;2023-02-15T08:39:00;22.73;;;12.63;;
22935;SDS011;11633;42.716;23.312;2023-02-15T08:41:29;19.58;;;12.02;;
22935;SDS011;11633;42.716;23.312;2023-02-15T08:43:56;18.40;;;11.23;;
22935;SDS011;11633;42.716;23.312;2023-02-15T08:46:22;16.48;;;10.20;;
22935;SDS011;11633;42.716;23.312;2023-02-15T08:48:48;14.70;;;9.65;;
22935;SDS011;11633;42.716;23.312;2023-02-15T08:51:14;20.42;;;11.15;;
22935;SDS011;11633;42.716;23.312;2023-02-15T08:53:40;18.50;;;10.57;;
22935;SDS011;11633;42.716;23.312;2023-02-15T08:56:06;15.77;;;9.48;;
22935;SDS011;11633;42.716;23.312;2023-02-15T08:58:31;15.75;;;9.57;;
22935;SDS011;11633;42.716;23.312;2023-02-15T09:00:57;14.98;;;9.73;;
22935;SDS011;11633;42.716;23.312;2023-02-15T09:03:22;15.77;;;9.48;;
22935;SDS011;11633;42.716;23.312;2023-02-15T09:05:48;18.50;;;11.23;;
22935;SDS011;11633;42.716;23.312;2023-02-15T09:08:13;17.77;;;10.02;;
22935;SDS011;11633;42.716;23.312;2023-02-15T09:10:38;17.23;;;9.80;;
22935;SDS011;11633;42.716;23.312;2023-02-15T09:13:03;14.25;;;9.95;;
22935;SDS011;11633;42.716;23.312;2023-02-15T09:15:29;14.18;;;9.25;;
22935;SDS011;11633;42.716;23.312;2023-02-15T09:17:54;19.95;;;12.15;;
22935;SDS011;11633;42.716;23.312;2023-02-15T09:20:19;16.75;;;9.75;;
22935;SDS011;11633;42.716;23.312;2023-02-15T09:22:45;16.55;;;9.80;;
22935;SDS011;11633;42.716;23.312;2023-02-15T09:25:10;17.40;;;10.13;;
22935;SDS011;11633;42.716;23.312;2023-02-15T09:27:35;15.55;;;10.38;;
22935;SDS011;11633;42.716;23.312;2023-02-15T09:30:02;15.35;;;9.23;;
22935;SDS011;11633;42.716;23.312;2023-02-15T09:32:27;16.23;;;10.30;;
22935;SDS011;11633;42.716;23.312;2023-02-15T09:34:52;17.77;;;10.30;;
22935;SDS011;11633;42.716;23.312;2023-02-15T09:37:18;16.88;;;9.82;;
22935;SDS011;11633;42.716;23.312;2023-02-15T09:39:43;17.25;;;10.07;;
22935;SDS011;11633;42.716;23.312;2023-02-15T10:08:00;15.98;;;9.52;;
22935;SDS011;11633;42.716;23.312;2023-02-15T10:10:40;22.40;;;10.50;;
22935;SDS011;11633;42.716;23.312;2023-02-15T10:13:23;16.38;;;10.18;;
22935;SDS011;11633;42.716;23.312;2023-02-15T10:28:18;17.38;;;10.13;;
22935;SDS011;11633;42.716;23.312;2023-02-15T10:50:54;22.45;;;10.77;;
22935;SDS011;11633;42.716;23.312;2023-02-15T10:55:55;19.20;;;10.77;;
22935;SDS011;11633;42.716;23.312;2023-02-15T10:58:29;17.15;;;10.98;;
22935;SDS011;11633;42.716;23.312;2023-02-15T11:01:04;15.52;;;10.93;;
22935;SDS011;11633;42.716;23.312;2023-02-15T11:08:26;16.98;;;11.90;;
22935;SDS011;11633;42.716;23.312;2023-02-15T11:10:55;15.77;;;10.32;;
22935;SDS011;11633;42.716;23.312;2023-02-15T11:13:22;19.40;;;11.13;;
22935;SDS011;11633;42.716;23.312;2023-02-15T11:15:51;16.75;;;10.73;;
22935;SDS011;11633;42.716;23.312;2023-02-15T11:18:25;19.05;;;10.40;;
22935;SDS011;11633;42.716;23.312;2023-02-15T11:23:47;17.00;;;10.50;;
22935;SDS011;11633;42.716;23.312;2023-02-15T11:28:47;18.75;;;11.27;;
22935;SDS011;11633;42.716;23.312;2023-02-15T11:31:17;18.30;;;10.10;;
22935;SDS011;11633;42.716;23.312;2023-02-15T11:33:44;17.83;;;10.85;;
22935;SDS011;11633;42.716;23.312;2023-02-15T11:36:18;18.35;;;10.98;;
22935;SDS011;11633;42.716;23.312;2023-02-15T11:38:45;17.67;;;10.52;;
22935;SDS011;11633;42.716;23.312;2023-02-15T11:41:12;19.25;;;11.93;;
22935;SDS011;11633;42.716;23.312;2023-02-15T11:43:53;22.25;;;12.32;;
22935;SDS011;11633;42.716;23.312;2023-02-15T11:46:20;20.80;;;11.48;;
22935;SDS011;11633;42.716;23.312;2023-02-15T11:48:46;15.40;;;10.43;;
22935;SDS011;11633;42.716;23.312;2023-02-15T11:51:12;17.50;;;10.00;;
22935;SDS011;11633;42.716;23.312;2023-02-15T11:53:39;19.67;;;10.68;;
22935;SDS011;11633;42.716;23.312;2023-02-15T11:56:04;18.98;;;11.32;;
22935;SDS011;11633;42.716;23.312;2023-02-15T12:00:58;17.00;;;10.02;;
22935;SDS011;11633;42.716;23.312;2023-02-15T12:03:45;15.75;;;10.73;;
22935;SDS011;11633;42.716;23.312;2023-02-15T12:06:16;18.75;;;11.63;;
22935;SDS011;11633;42.716;23.312;2023-02-15T12:08:44;17.33;;;10.25;;
22935;SDS011;11633;42.716;23.312;2023-02-15T12:11:15;17.25;;;9.68;;
22935;SDS011;11633;42.716;23.312;2023-02-15T12:13:55;17.58;;;10.55;;
22935;SDS011;11633;42.716;23.312;2023-02-15T12:16:21;18.30;;;10.13;;
22935;SDS011;11633;42.716;23.312;2023-02-15T12:18:46;19.85;;;10.35;;
22935;SDS011;11633;42.716;23.312;2023-02-15T12:21:14;18.17;;;10.57;;
22935;SDS011;11633;42.716;23.312;2023-02-15T12:23:46;20.38;;;11.57;;
22935;SDS011;11633;42.716;23.312;2023-02-15T12:26:13;18.70;;;10.70;;
22935;SDS011;11633;42.716;23.312;2023-02-15T12:28:40;18.30;;;11.15;;
22935;SDS011;11633;42.716;23.312;2023-02-15T12:31:25;18.60;;;11.23;;
22935;SDS011;11633;42.716;23.312;2023-02-15T12:33:52;19.33;;;10.75;;
22935;SDS011;11633;42.716;23.312;2023-02-15T12:36:19;20.63;;;11.90;;
22935;SDS011;11633;42.716;23.312;2023-02-15T12:39:31;20.23;;;10.40;;
22935;SDS011;11633;42.716;23.312;2023-02-15T12:41:31;20.60;;;10.80;;
22935;SDS011;11633;42.716;23.312;2023-02-15T12:44:07;18.33;;;11.85;;
22935;SDS011;11633;42.716;23.312;2023-02-15T12:46:40;20.27;;;11.68;;
22935;SDS011;11633;42.716;23.312;2023-02-15T12:52:22;19.50;;;11.50;;
22935;SDS011;11633;42.716;23.312;2023-02-15T12:56:54;17.30;;;10.35;;
22935;SDS011;11633;42.716;23.312;2023-02-15T12:59:19;23.00;;;12.25;;
22935;SDS011;11633;42.716;23.312;2023-02-15T13:01:46;20.35;;;11.65;;
22935;SDS011;11633;42.716;23.312;2023-02-15T13:06:45;17.50;;;11.75;;
22935;SDS011;11633;42.716;23.312;2023-02-15T13:09:19;15.38;;;10.48;;
22935;SDS011;11633;42.716;23.312;2023-02-15T13:11:44;17.60;;;10.88;;
22935;SDS011;11633;42.716;23.312;2023-02-15T13:14:31;18.77;;;11.27;;
22935;SDS011;11633;42.716;23.312;2023-02-15T13:16:57;17.92;;;10.48;;
22935;SDS011;11633;42.716;23.312;2023-02-15T13:19:37;16.33;;;9.65;;
22935;SDS011;11633;42.716;23.312;2023-02-15T13:22:14;20.08;;;14.40;;
22935;SDS011;11633;42.716;23.312;2023-02-15T13:24:43;20.45;;;14.40;;
22935;SDS011;11633;42.716;23.312;2023-02-15T13:27:12;16.33;;;11.68;;
22935;SDS011;11633;42.716;23.312;2023-02-15T13:29:39;18.92;;;11.85;;
22935;SDS011;11633;42.716;23.312;2023-02-15T13:32:14;18.45;;;12.10;;
22935;SDS011;11633;42.716;23.312;2023-02-15T13:34:42;17.08;;;10.60;;
22935;SDS011;11633;42.716;23.312;2023-02-15T13:37:19;20.73;;;11.82;;
22935;SDS011;11633;42.716;23.312;2023-02-15T13:39:54;18.70;;;10.93;;
22935;SDS011;11633;42.716;23.312;2023-02-15T13:42:31;21.33;;;11.15;;
22935;SDS011;11633;42.716;23.312;2023-02-15T13:50:10;17.75;;;11.05;;
22935;SDS011;11633;42.716;23.312;2023-02-15T13:52:43;19.70;;;11.57;;
22935;SDS011;11633;42.716;23.312;2023-02-15T14:02:44;17.23;;;11.07;;
22935;SDS011;11633;42.716;23.312;2023-02-15T14:10:27;17.92;;;11.30;;
22935;SDS011;11633;42.716;23.312;2023-02-15T14:15:48;22.63;;;12.40;;
22935;SDS011;11633;42.716;23.312;2023-02-15T14:25:51;16.42;;;10.63;;
22935;SDS011;11633;42.716;23.312;2023-02-15T14:28:31;20.52;;;10.73;;
22935;SDS011;11633;42.716;23.312;2023-02-15T14:30:58;17.95;;;10.80;;
22935;SDS011;11633;42.716;23.312;2023-02-15T14:35:49;20.33;;;11.15;;
22935;SDS011;11633;42.716;23.312;2023-02-15T14:48:30;21.77;;;11.18;;
22935;SDS011;11633;42.716;23.312;2023-02-15T14:50:56;21.70;;;11.50;;
22935;SDS011;11633;42.716;23.312;2023-02-15T14:53:34;17.30;;;10.82;;
22935;SDS011;11633;42.716;23.312;2023-02-15T14:56:05;14.02;;;10.23;;
22935;SDS011;11633;42.716;23.312;2023-02-15T14:58:32;16.00;;;10.52;;
22935;SDS011;11633;42.716;23.312;2023-02-15T15:01:03;20.95;;;10.85;;
22935;SDS011;11633;42.716;23.312;2023-02-15T15:03:30;19.63;;;10.98;;
22935;SDS011;11633;42.716;23.312;2023-02-15T15:05:56;17.58;;;11.55;;
22935;SDS011;11633;42.716;23.312;2023-02-15T15:08:28;23.30;;;13.02;;
22935;SDS011;11633;42.716;23.312;2023-02-15T15:10:54;22.75;;;13.30;;
22935;SDS011;11633;42.716;23.312;2023-02-15T15:15:54;21.92;;;11.35;;
22935;SDS011;11633;42.716;23.312;2023-02-15T15:21:04;20.75;;;11.98;;
22935;SDS011;11633;42.716;23.312;2023-02-15T15:25:58;22.35;;;12.07;;
22935;SDS011;11633;42.716;23.312;2023-02-15T15:31:10;20.52;;;11.23;;
22935;SDS011;11633;42.716;23.312;2023-02-15T15:34:06;18.48;;;10.95;;
22935;SDS011;11633;42.716;23.312;2023-02-15T15:49:31;18.33;;;11.25;;
22935;SDS011;11633;42.716;23.312;2023-02-15T15:51:59;23.85;;;13.10;;
22935;SDS011;11633;42.716;23.312;2023-02-15T15:54:25;25.90;;;12.75;;
22935;SDS011;11633;42.716;23.312;2023-02-15T15:56:53;21.80;;;12.48;;
22935;SDS011;11633;42.716;23.312;2023-02-15T15:59:23;22.35;;;12.07;;
22935;SDS011;11633;42.716;23.312;2023-02-15T16:01:49;21.63;;;12.48;;
22935;SDS011;11633;42.716;23.312;2023-02-15T16:09:40;22.13;;;11.93;;
22935;SDS011;11633;42.716;23.312;2023-02-15T16:12:11;19.05;;;11.23;;
22935;SDS011;11633;42.716;23.312;2023-02-15T16:14:39;22.40;;;12.55;;
22935;SDS011;11633;42.716;23.312;2023-02-15T16:17:06;29.42;;;13.13;;
22935;SDS011;11633;42.716;23.312;2023-02-15T16:19:36;21.13;;;11.55;;
22935;SDS011;11633;42.716;23.312;2023-02-15T16:22:03;22.25;;;12.30;;
22935;SDS011;11633;42.716;23.312;2023-02-15T16:24:38;21.05;;;12.35;;
22935;SDS011;11633;42.716;23.312;2023-02-15T16:32:43;19.83;;;10.77;;
22935;SDS011;11633;42.716;23.312;2023-02-15T16:35:11;23.88;;;12.70;;
22935;SDS011;11633;42.716;23.312;2023-02-15T16:37:38;20.63;;;12.32;;
22935;SDS011;11633;42.716;23.312;2023-02-15T16:40:03;35.45;;;15.20;;
22935;SDS011;11633;42.716;23.312;2023-02-15T16:42:29;22.08;;;11.95;;
22935;SDS011;11633;42.716;23.312;2023-02-15T16:45:01;24.25;;;12.90;;
22935;SDS011;11633;42.716;23.312;2023-02-15T16:47:30;19.38;;;11.90;;
22935;SDS011;11633;42.716;23.312;2023-02-15T16:49:57;20.25;;;12.05;;
22935;SDS011;11633;42.716;23.312;2023-02-15T16:52:24;22.83;;;12.32;;
22935;SDS011;11633;42.716;23.312;2023-02-15T16:54:57;19.35;;;11.23;;
22935;SDS011;11633;42.716;23.312;2023-02-15T16:57:33;21.52;;;11.77;;
22935;SDS011;11633;42.716;23.312;2023-02-15T17:02:58;20.40;;;11.77;;
22935;SDS011;11633;42.716;23.312;2023-02-15T17:05:23;22.60;;;12.57;;
22935;SDS011;11633;42.716;23.312;2023-02-15T17:07:50;16.02;;;11.82;;
22935;SDS011;11633;42.716;23.312;2023-02-15T17:10:26;21.98;;;11.75;;
22935;SDS011;11633;42.716;23.312;2023-02-15T17:12:52;18.23;;;12.05;;
22935;SDS011;11633;42.716;23.312;2023-02-15T17:15:33;20.40;;;11.18;;
22935;SDS011;11633;42.716;23.312;2023-02-15T17:18:00;22.42;;;12.45;;
22935;SDS011;11633;42.716;23.312;2023-02-15T17:20:26;19.80;;;11.32;;
22935;SDS011;11633;42.716;23.312;2023-02-15T17:22:52;20.65;;;12.23;;
22935;SDS011;11633;42.716;23.312;2023-02-15T17:25:19;21.67;;;11.50;;
22935;SDS011;11633;42.716;23.312;2023-02-15T17:27:50;19.70;;;11.77;;
22935;SDS011;11633;42.716;23.312;2023-02-15T17:30:17;21.55;;;11.80;;